Greenville, SC (29611)

8:40 PM EST on February 09, 2016 (GMT -0500)
APRSWXNET | | Change Station
CLOSE
Current Station
Personal Weather Station
Location: Greenville, SC
Elevation: 961 ft
Nearby Weather Stations

Elev 961 ft 34.84 °N, 82.40 °W | Updated 31 minutes ago

Overcast
Overcast
33 °F
Feels Like 33 °F
N
2
Wind Variable Wind from NW
Gusts 0.0 mph

Today
High -- | Low -- °F
--% Chance of Precip.
Yesterday
High -- | Low -- °F
Precip. -- in
Pressure 29.88 in
Visibility 10.0 miles
Clouds Mostly Cloudy 5500 ft
Overcast 6500 ft
Windchill 33 °F
Dew Point 15 °F
Humidity 48%
Rainfall in
Snow Depth Not available.
7:21 AM 6:06 PM
Waxing Crescent, 3% visible
METAR KGMU 100053Z 29010KT 10SM BKN055 OVC065 01/M12 A2986 RMK AO2 SLP118 T00111117
Pressure 29.88 in
Visibility 10.0 miles
Clouds Mostly Cloudy 5500 ft
Overcast 6500 ft
Windchill 33 °F
Dew Point 15 °F
Humidity 48%
Rainfall in
Snow Depth Not available.
7:21 AM 6:06 PM
Waxing Crescent, 3% visible
METAR KGMU 100053Z 29010KT 10SM BKN055 OVC065 01/M12 A2986 RMK AO2 SLP118 T00111117
Winter Storm Nacio, the third winter storm in five days to affect the Northeast, is bringing pockets of locally heavy snow to parts of the Ohio Valley, Appalachians and mid-Atlantic states Tuesday. Winter storm warnings are posted for parts of southern Pennsylvania, southern Ohio and the higher peaks of the Appalachians. Winter weather advisories, generally for lighter snow accumulations, stretch from northeast Alabama and far north Georgia to southern Connecticut and Long Island.

10-Day Weather Forecast

Almanac

Astronomy

Feb. 09, 2016 Rise Set
Actual Time
Civil Twilight
Nautical Twilight
Astronomical Twilight
Moon
Length of Visible Light
Length of Day
Tomorrow will be .
, % of the Moon is Illuminated

Today's Extremes

State Highs State Lows

Community

WunderPhotos

Upload Photos

1,891,760 photos uploaded!

WunderBlog® & News

Nearby

Air Quality

  Air Quality AQ Index Pollutant
Not available.

Snow Depth

Station Depth Elevation

Earthquake Activity

City Distance Mag. Time & Date
Minimum magnitude displayed is 2.5.

Coastal Water Temperatures

Place Temperature

Stations

Nearby Weather Stations

Station Location Temp. Windchill Dew Point Humidity Wind Precip. Elev Updated Type
                   

Watches & Warnings

There are currently no watches in effect.